Time;durP1;ratioP1;P1;durP2;ratioP2;P2;SDS_P1;SDS_P2;PMS_P1;PMS_P2;Temp;Humidity;BMP_temperature;BMP_pressure;BME280_temperature;BME280_humidity;BME280_pressure;Samples;Min_cycle;Max_cycle;Signal;HPM_P1;HPM_P2
2024/01/01 00:00:54;;;;;;;63.53;39.17;;;;;;;5.77;100.00;99197.88;4879024;29;20041;-72
2024/01/01 00:03:19;;;;;;;62.85;42.28;;;;;;;5.80;100.00;99194.19;4878446;29;20036;-71
2024/01/01 00:05:44;;;;;;;63.85;41.72;;;;;;;5.77;100.00;99194.44;4878614;29;20542;-74
2024/01/01 00:08:10;;;;;;;61.75;40.58;;;;;;;5.77;100.00;99197.06;4877702;29;20033;-72
2024/01/01 00:10:35;;;;;;;60.35;39.58;;;;;;;5.76;100.00;99203.25;4878441;29;20501;-72
2024/01/01 00:13:01;;;;;;;59.22;38.15;;;;;;;5.78;100.00;99211.78;4878173;29;20114;-72
2024/01/01 00:15:26;;;;;;;62.58;38.83;;;;;;;5.77;100.00;99215.38;4877827;29;20037;-72
2024/01/01 00:17:52;;;;;;;60.50;38.47;;;;;;;5.68;100.00;99210.84;4876723;29;20025;-72
2024/01/01 00:20:17;;;;;;;64.70;41.25;;;;;;;5.67;100.00;99204.78;4877686;29;20338;-73
2024/01/01 00:22:44;;;;;;;61.75;39.78;;;;;;;5.64;100.00;99193.75;4878168;29;20040;-72
2024/01/01 00:25:09;;;;;;;62.58;39.38;;;;;;;5.59;100.00;99195.88;4877740;29;20387;-73
2024/01/01 00:27:35;;;;;;;54.58;35.97;;;;;;;5.63;100.00;99192.06;4877984;29;20046;-73
2024/01/01 00:30:01;;;;;;;63.00;38.33;;;;;;;5.59;100.00;99195.88;4876734;29;20052;-72
2024/01/01 00:32:27;;;;;;;59.75;38.38;;;;;;;5.60;100.00;99200.97;4875448;29;20037;-73
2024/01/01 00:34:52;;;;;;;57.83;37.05;;;;;;;5.59;100.00;99198.50;4877709;29;20039;-72
2024/01/01 00:37:18;;;;;;;57.60;36.85;;;;;;;5.58;100.00;99192.44;4877663;29;20121;-73
2024/01/01 00:39:43;;;;;;;58.17;36.83;;;;;;;5.58;100.00;99202.06;4875770;29;20032;-72
2024/01/01 00:42:09;;;;;;;55.42;37.25;;;;;;;5.53;100.00;99197.19;4882295;29;20037;-72
2024/01/01 00:44:34;;;;;;;67.15;41.28;;;;;;;5.47;100.00;99202.06;4877528;29;20037;-73
2024/01/01 00:46:59;;;;;;;67.75;40.95;;;;;;;5.33;100.00;99206.59;4877699;29;20048;-71
2024/01/01 00:49:25;;;;;;;89.25;57.95;;;;;;;5.21;100.00;99207.53;4877166;29;20077;-72
2024/01/01 00:51:50;;;;;;;86.18;56.78;;;;;;;5.08;100.00;99212.03;4875758;29;20131;-71
2024/01/01 00:54:16;;;;;;;89.63;55.05;;;;;;;5.02;100.00;99207.25;4876979;29;20481;-73
2024/01/01 00:56:42;;;;;;;89.35;53.88;;;;;;;4.94;100.00;99209.63;4875716;29;20308;-72
2024/01/01 00:59:07;;;;;;;90.25;48.08;;;;;;;4.86;100.00;99218.03;4877456;29;20033;-73
2024/01/01 01:01:33;;;;;;;85.57;49.72;;;;;;;4.79;100.00;99216.84;4876973;29;20101;-73
2024/01/01 01:03:58;;;;;;;135.73;49.80;;;;;;;4.78;100.00;99219.56;4876084;29;20037;-73
2024/01/01 01:06:23;;;;;;;157.35;44.30;;;;;;;4.70;100.00;99221.91;4882306;29;20048;-73
2024/01/01 01:08:49;;;;;;;103.90;44.45;;;;;;;4.70;100.00;99216.69;4877125;29;20438;-73
2024/01/01 01:11:14;;;;;;;107.22;45.72;;;;;;;4.68;100.00;99208.97;4875473;29;20037;-73
2024/01/01 01:13:40;;;;;;;93.07;42.17;;;;;;;4.70;100.00;99227.16;4877249;29;20041;-73
2024/01/01 01:16:05;;;;;;;68.05;42.05;;;;;;;4.71;100.00;99224.41;4877259;29;20182;-73
2024/01/01 01:18:31;;;;;;;86.22;43.17;;;;;;;4.69;100.00;99230.69;4875786;29;20041;-71
2024/01/01 01:20:56;;;;;;;77.32;42.55;;;;;;;4.68;100.00;99218.56;4876785;29;20112;-73
2024/01/01 01:23:21;;;;;;;60.97;42.22;;;;;;;4.67;100.00;99216.91;4876420;29;20439;-71
2024/01/01 01:25:47;;;;;;;60.65;42.38;;;;;;;4.65;100.00;99218.81;4877148;29;20033;-72
2024/01/01 01:28:21;;;;;;;58.72;41.00;;;;;;;4.64;100.00;99230.22;4876870;29;20501;-73
2024/01/01 01:30:47;;;;;;;57.08;41.00;;;;;;;4.61;100.00;99230.44;4876902;29;20040;-72
2024/01/01 01:33:12;;;;;;;56.55;39.50;;;;;;;4.61;100.00;99233.03;4876455;29;20033;-73
2024/01/01 01:35:37;;;;;;;46.40;36.50;;;;;;;4.54;100.00;99232.66;4876387;29;20033;-73
2024/01/01 01:38:03;;;;;;;50.30;38.40;;;;;;;4.45;100.00;99225.50;4875047;29;20389;-74
2024/01/01 01:40:28;;;;;;;60.58;42.85;;;;;;;4.38;100.00;99217.28;4875700;29;20037;-73
2024/01/01 01:42:54;;;;;;;58.28;41.00;;;;;;;4.30;100.00;99213.56;4876892;29;20061;-73
2024/01/01 01:45:19;;;;;;;63.83;43.90;;;;;;;4.26;100.00;99212.94;4874498;29;20485;-72
2024/01/01 01:47:45;;;;;;;64.55;42.83;;;;;;;4.21;100.00;99202.00;4876731;29;20036;-72
2024/01/01 01:50:11;;;;;;;66.72;44.53;;;;;;;4.20;100.00;99202.94;4876435;29;20052;-73
2024/01/01 01:52:38;;;;;;;67.93;46.63;;;;;;;4.19;100.00;99205.66;4876323;29;20033;-72
2024/01/01 01:55:04;;;;;;;69.35;46.42;;;;;;;4.17;100.00;99205.78;4876421;29;20041;-73
2024/01/01 01:57:32;;;;;;;73.53;47.55;;;;;;;4.20;100.00;99202.94;4874380;29;20048;-71
2024/01/01 01:59:58;;;;;;;70.18;46.55;;;;;;;4.15;100.00;99209.44;4873112;29;20136;-71
2024/01/01 02:02:26;;;;;;;67.70;44.33;;;;;;;4.17;100.00;99218.84;4873178;29;20128;-73
2024/01/01 02:04:52;;;;;;;63.70;43.13;;;;;;;4.10;100.00;99212.38;4875682;29;20041;-72
2024/01/01 02:07:17;;;;;;;61.80;43.80;;;;;;;4.08;100.00;99220.31;4876189;29;20040;-72
2024/01/01 02:09:43;;;;;;;69.15;44.58;;;;;;;4.04;100.00;99218.06;4876611;29;20456;-72
2024/01/01 02:12:08;;;;;;;61.70;43.45;;;;;;;4.02;100.00;99214.72;4876740;29;20074;-72
2024/01/01 02:14:34;;;;;;;86.90;46.22;;;;;;;4.00;100.00;99214.00;4876454;29;20029;-72
2024/01/01 02:17:00;;;;;;;98.85;48.10;;;;;;;3.99;100.00;99214.94;4876992;29;20504;-72
2024/01/01 02:19:26;;;;;;;114.00;47.33;;;;;;;3.94;100.00;99214.44;4875235;29;20488;-71
2024/01/01 02:21:53;;;;;;;74.10;45.63;;;;;;;3.89;100.00;99214.75;4890749;29;20033;-73
2024/01/01 02:24:20;;;;;;;69.03;46.03;;;;;;;3.88;100.00;99215.72;4874463;29;20128;-72
2024/01/01 02:26:47;;;;;;;69.25;43.28;;;;;;;3.90;100.00;99215.56;4876675;29;20041;-73
2024/01/01 02:29:14;;;;;;;111.60;43.55;;;;;;;3.85;100.00;99215.06;4875010;29;20482;-73
2024/01/01 02:31:40;;;;;;;89.07;42.83;;;;;;;3.75;100.00;99221.91;4876865;29;20029;-73
2024/01/01 02:34:05;;;;;;;87.00;41.67;;;;;;;3.64;100.00;99220.88;4876298;29;20096;-72
2024/01/01 02:36:36;;;;;;;121.15;39.10;;;;;;;3.53;100.00;99212.13;4874545;29;20044;-73
2024/01/01 02:39:06;;;;;;;107.10;40.53;;;;;;;3.40;100.00;99217.38;4875545;29;20044;-73
2024/01/01 02:41:33;;;;;;;95.50;42.72;;;;;;;3.34;100.00;99219.56;4875906;29;20100;-73
2024/01/01 02:43:59;;;;;;;117.68;41.50;;;;;;;3.19;100.00;99219.66;4878629;29;20033;-73
2024/01/01 02:46:25;;;;;;;103.97;40.22;;;;;;;3.00;100.00;99223.63;4875740;29;20037;-72
2024/01/01 02:48:51;;;;;;;73.15;41.28;;;;;;;3.08;100.00;99224.78;4876671;29;20578;-73
2024/01/01 02:51:17;;;;;;;147.35;40.85;;;;;;;2.94;100.00;99219.66;4878861;29;20073;-73
2024/01/01 02:53:42;;;;;;;68.68;41.08;;;;;;;2.88;100.00;99220.91;4874142;29;20056;-74
2024/01/01 02:56:18;;;;;;;102.45;41.45;;;;;;;2.83;100.00;99212.53;4874491;29;20589;-73
2024/01/01 02:58:43;;;;;;;70.70;40.05;;;;;;;2.92;100.00;99215.47;4870677;29;20044;-73
2024/01/01 03:01:10;;;;;;;82.97;41.00;;;;;;;2.97;100.00;99213.41;4874103;29;20044;-72
2024/01/01 03:03:35;;;;;;;75.80;39.83;;;;;;;2.96;100.00;99216.94;4875974;29;20398;-72
2024/01/01 03:06:02;;;;;;;119.63;35.20;;;;;;;2.69;100.00;99220.47;4874598;29;20096;-72
2024/01/01 03:08:28;;;;;;;109.97;34.33;;;;;;;2.52;100.00;99212.94;4874280;29;20064;-72
2024/01/01 03:10:53;;;;;;;110.38;35.88;;;;;;;2.33;100.00;99217.66;4875277;29;20411;-73
2024/01/01 03:13:18;;;;;;;110.53;36.30;;;;;;;2.35;100.00;99215.81;4875497;29;20037;-73
2024/01/01 03:15:45;;;;;;;81.05;35.78;;;;;;;2.43;100.00;99223.94;4876040;29;20045;-74
2024/01/01 03:18:12;;;;;;;80.55;36.95;;;;;;;2.48;100.00;99222.69;4875821;29;20040;-73
2024/01/01 03:20:38;;;;;;;68.95;36.17;;;;;;;2.50;100.00;99219.16;4875835;29;20048;-72
2024/01/01 03:23:04;;;;;;;66.88;37.63;;;;;;;2.56;100.00;99209.19;4876073;29;20033;-72
2024/01/01 03:25:30;;;;;;;66.35;36.38;;;;;;;2.56;100.00;99213.53;4874884;29;20234;-72
2024/01/01 03:27:55;;;;;;;72.75;37.63;;;;;;;2.60;100.00;99210.63;4875543;29;20509;-71
2024/01/01 03:30:22;;;;;;;88.78;34.28;;;;;;;2.55;100.00;99207.50;4878941;29;20041;-73
2024/01/01 03:32:49;;;;;;;97.25;36.22;;;;;;;2.45;100.00;99222.06;4874415;29;20041;-73
2024/01/01 03:35:16;;;;;;;78.28;35.72;;;;;;;2.45;100.00;99233.31;4885824;29;20519;-73
2024/01/01 03:37:41;;;;;;;76.43;38.28;;;;;;;2.45;100.00;99248.13;4874556;29;20037;-72
2024/01/01 03:40:07;;;;;;;54.50;37.13;;;;;;;2.52;100.00;99249.38;4875447;29;20033;-73
2024/01/01 03:42:33;;;;;;;60.40;38.92;;;;;;;2.60;100.00;99244.50;4875391;29;20041;-72
2024/01/01 03:44:59;;;;;;;63.55;37.35;;;;;;;2.66;100.00;99236.28;4874582;29;20093;-72
2024/01/01 03:47:25;;;;;;;57.75;37.17;;;;;;;2.67;100.00;99242.31;4875504;29;20121;-72
2024/01/01 03:49:50;;;;;;;58.90;36.08;;;;;;;2.70;100.00;99232.56;4876697;29;20119;-72
2024/01/01 03:52:16;;;;;;;73.90;37.25;;;;;;;2.71;100.00;99223.78;4875909;29;20055;-72
2024/01/01 03:54:41;;;;;;;94.80;36.03;;;;;;;2.61;100.00;99222.72;4875751;29;20104;-72
2024/01/01 03:57:07;;;;;;;80.32;34.95;;;;;;;2.35;100.00;99221.00;4870054;29;20053;-73
2024/01/01 03:59:32;;;;;;;68.60;35.63;;;;;;;2.25;100.00;99214.69;4874966;29;20044;-72
2024/01/01 04:01:57;;;;;;;87.22;37.63;;;;;;;2.20;100.00;99221.97;4875858;29;20490;-72
2024/01/01 04:04:23;;;;;;;64.28;38.95;;;;;;;2.24;100.00;99202.66;4875270;29;20574;-72
2024/01/01 04:06:49;;;;;;;69.50;40.22;;;;;;;2.29;100.00;99216.19;4877306;29;20128;-73
2024/01/01 04:09:15;;;;;;;57.17;37.53;;;;;;;2.33;100.00;99215.06;4876520;29;20048;-73
2024/01/01 04:11:40;;;;;;;61.67;38.03;;;;;;;2.34;100.00;99216.72;4878188;29;20032;-72
2024/01/01 04:14:05;;;;;;;64.15;39.88;;;;;;;2.27;100.00;99218.06;4881268;29;20033;-73
2024/01/01 04:16:31;;;;;;;68.07;38.88;;;;;;;2.11;100.00;99209.56;4892073;29;20577;-71
2024/01/01 04:18:57;;;;;;;93.57;38.53;;;;;;;1.98;100.00;99207.75;4893528;29;20056;-73
2024/01/01 04:21:22;;;;;;;71.60;39.45;;;;;;;2.17;100.00;99209.16;4884525;29;20117;-72
2024/01/01 04:23:48;;;;;;;76.85;39.67;;;;;;;2.15;100.00;99211.03;4878257;29;20470;-72
2024/01/01 04:26:14;;;;;;;74.18;39.83;;;;;;;2.24;100.00;99215.66;4878614;29;20033;-72
2024/01/01 04:28:39;;;;;;;76.45;38.22;;;;;;;2.08;100.00;99212.34;4878187;29;20068;-72
2024/01/01 04:31:05;;;;;;;83.15;40.50;;;;;;;1.96;100.00;99220.00;4878471;29;20104;-74
2024/01/01 04:33:30;;;;;;;91.53;41.85;;;;;;;2.12;100.00;99221.66;4878701;29;20167;-73
2024/01/01 04:35:56;;;;;;;60.78;40.35;;;;;;;2.21;100.00;99221.03;4878811;29;20419;-72
2024/01/01 04:38:21;;;;;;;93.75;40.78;;;;;;;2.27;100.00;99231.06;4877978;29;20048;-73
2024/01/01 04:40:47;;;;;;;86.13;39.80;;;;;;;2.29;100.00;99226.59;4878201;29;20052;-72
2024/01/01 04:43:12;;;;;;;114.32;38.45;;;;;;;2.26;100.00;99226.78;4878140;29;20044;-75
2024/01/01 04:45:38;;;;;;;95.32;39.50;;;;;;;2.23;100.00;99227.00;4878129;29;20336;-72
2024/01/01 04:48:04;;;;;;;85.82;38.03;;;;;;;2.21;100.00;99224.50;4878196;29;20120;-72
2024/01/01 04:50:31;;;;;;;60.90;38.17;;;;;;;2.22;100.00;99220.97;4878211;29;20203;-73
2024/01/01 04:52:58;;;;;;;99.00;38.42;;;;;;;2.30;100.00;99223.03;4878339;29;20461;-72
2024/01/01 04:55:23;;;;;;;101.95;38.83;;;;;;;2.28;100.00;99235.34;4877502;29;20125;-73
2024/01/01 04:57:48;;;;;;;58.30;38.33;;;;;;;2.31;100.00;99229.94;4878458;29;20045;-72
2024/01/01 05:00:14;;;;;;;61.92;38.88;;;;;;;2.36;100.00;99239.09;4876921;29;20134;-73
2024/01/01 05:02:40;;;;;;;55.67;39.33;;;;;;;2.43;100.00;99244.75;4877996;29;20040;-73
2024/01/01 05:05:08;;;;;;;56.55;39.20;;;;;;;2.51;100.00;99246.88;4874731;29;20041;-73
2024/01/01 05:07:37;;;;;;;107.78;39.22;;;;;;;2.44;100.00;99241.22;4877686;29;20132;-74
2024/01/01 05:10:03;;;;;;;59.22;37.70;;;;;;;2.52;100.00;99245.94;4876363;29;20029;-71
2024/01/01 05:12:29;;;;;;;58.88;35.95;;;;;;;2.53;100.00;99245.84;4877570;29;20044;-73
2024/01/01 05:14:54;;;;;;;52.50;36.55;;;;;;;2.56;100.00;99245.63;4877511;29;20037;-73
2024/01/01 05:17:20;;;;;;;82.47;36.38;;;;;;;2.60;100.00;99248.88;4876706;29;20051;-72
2024/01/01 05:19:45;;;;;;;68.65;35.50;;;;;;;2.59;100.00;99250.66;4874042;29;20042;-72
2024/01/01 05:22:11;;;;;;;106.20;37.60;;;;;;;2.61;100.00;99254.00;4877332;29;20494;-72
2024/01/01 05:24:36;;;;;;;88.70;37.50;;;;;;;2.57;100.00;99257.72;4877083;29;20037;-72
2024/01/01 05:27:03;;;;;;;66.68;36.28;;;;;;;2.52;100.00;99257.19;4876046;29;20060;-71
2024/01/01 05:29:30;;;;;;;68.45;37.80;;;;;;;2.52;100.00;99259.81;4876920;29;20128;-72
2024/01/01 05:31:56;;;;;;;60.22;36.50;;;;;;;2.56;100.00;99268.25;4877251;29;20081;-70
2024/01/01 05:34:21;;;;;;;103.20;36.25;;;;;;;2.51;100.00;99294.59;4877136;29;20064;-72
2024/01/01 05:36:46;;;;;;;76.78;38.22;;;;;;;2.58;100.00;99290.66;4876606;29;20116;-73
2024/01/01 05:39:12;;;;;;;64.07;35.00;;;;;;;2.67;100.00;99279.63;4877254;29;20040;-72
2024/01/01 05:41:38;;;;;;;76.07;37.97;;;;;;;2.69;100.00;99282.16;4877424;29;20128;-72
2024/01/01 05:44:03;;;;;;;66.18;37.45;;;;;;;2.72;100.00;99282.78;4877627;29;20037;-73
2024/01/01 05:46:31;;;;;;;68.40;38.25;;;;;;;2.77;100.00;99278.09;4876827;29;20048;-73
2024/01/01 05:48:57;;;;;;;54.72;37.60;;;;;;;2.81;100.00;99282.19;4876648;29;20471;-70
2024/01/01 05:51:22;;;;;;;60.63;38.30;;;;;;;2.84;100.00;99281.97;4876773;29;20108;-72
2024/01/01 05:53:47;;;;;;;75.88;38.10;;;;;;;2.85;100.00;99282.81;4877208;29;20096;-73
2024/01/01 05:56:13;;;;;;;80.15;37.40;;;;;;;2.82;100.00;99283.88;4876770;29;20064;-73
2024/01/01 05:58:38;;;;;;;58.33;35.85;;;;;;;2.83;100.00;99269.88;4877226;29;20638;-72
2024/01/01 06:01:05;;;;;;;56.58;36.33;;;;;;;2.89;100.00;99266.88;4876978;29;20397;-72
2024/01/01 06:03:30;;;;;;;69.50;37.17;;;;;;;2.86;100.00;99263.63;4876187;29;20096;-72
2024/01/01 06:05:56;;;;;;;92.22;39.45;;;;;;;2.86;100.00;99274.06;4876896;29;20029;-72
2024/01/01 06:08:21;;;;;;;76.30;36.60;;;;;;;2.78;100.00;99277.16;4876690;29;20041;-72
2024/01/01 06:10:46;;;;;;;69.22;37.28;;;;;;;2.63;100.00;99272.97;4876674;29;20024;-71
2024/01/01 06:13:12;;;;;;;60.97;39.55;;;;;;;2.66;100.00;99272.75;4876288;29;20123;-73
2024/01/01 06:15:37;;;;;;;64.93;39.85;;;;;;;2.68;100.00;99281.31;4877014;29;20223;-72
2024/01/01 06:18:03;;;;;;;58.80;38.67;;;;;;;2.72;100.00;99285.38;4876282;29;20044;-72
2024/01/01 06:20:29;;;;;;;89.65;39.13;;;;;;;2.76;100.00;99289.47;4876422;29;20033;-73
2024/01/01 06:22:54;;;;;;;74.85;39.92;;;;;;;2.79;100.00;99288.44;4876779;29;20109;-72
2024/01/01 06:25:20;;;;;;;74.75;39.13;;;;;;;2.83;100.00;99285.50;4874811;29;20072;-73
2024/01/01 06:27:45;;;;;;;85.10;37.53;;;;;;;2.86;100.00;99279.28;4875420;29;20033;-73
2024/01/01 06:30:10;;;;;;;93.15;37.85;;;;;;;2.82;100.00;99288.25;4875791;29;20090;-72
2024/01/01 06:32:36;;;;;;;64.60;39.25;;;;;;;2.81;100.00;99286.56;4876344;29;20029;-72
2024/01/01 06:35:01;;;;;;;82.40;38.25;;;;;;;2.69;100.00;99283.00;4876243;29;20523;-72
2024/01/01 06:37:27;;;;;;;60.60;37.15;;;;;;;2.73;100.00;99289.66;4876114;29;20037;-72
2024/01/01 06:39:52;;;;;;;53.13;38.50;;;;;;;2.76;100.00;99279.06;4876046;29;20020;-72
2024/01/01 06:42:18;;;;;;;51.20;38.03;;;;;;;2.80;100.00;99275.31;4876278;29;20390;-73
2024/01/01 06:44:43;;;;;;;68.80;37.88;;;;;;;2.81;100.00;99282.19;4876573;29;20044;-74
2024/01/01 06:47:09;;;;;;;63.83;36.33;;;;;;;2.78;100.00;99279.78;4874852;29;20127;-72
2024/01/01 06:49:34;;;;;;;83.25;35.30;;;;;;;2.77;100.00;99272.88;4876147;29;20401;-72
2024/01/01 06:51:59;;;;;;;50.42;35.05;;;;;;;2.75;100.00;99282.59;4876119;29;20120;-72
2024/01/01 06:54:25;;;;;;;49.97;35.78;;;;;;;2.79;100.00;99293.63;4875818;29;20101;-74
2024/01/01 06:56:51;;;;;;;53.95;37.53;;;;;;;2.81;100.00;99303.03;4876273;29;20056;-72
2024/01/01 06:59:17;;;;;;;57.33;36.05;;;;;;;2.79;100.00;99315.31;4876009;29;20478;-72
2024/01/01 07:01:43;;;;;;;51.22;36.22;;;;;;;2.77;100.00;99325.00;4876126;29;20076;-72
2024/01/01 07:04:11;;;;;;;45.83;35.38;;;;;;;2.84;100.00;99323.66;4876018;29;20120;-72
2024/01/01 07:06:37;;;;;;;49.92;35.00;;;;;;;2.90;100.00;99327.66;4875612;29;20033;-73
2024/01/01 07:09:02;;;;;;;46.53;34.53;;;;;;;2.94;100.00;99328.28;4874811;29;20048;-73
2024/01/01 07:11:28;;;;;;;47.33;35.45;;;;;;;2.95;100.00;99329.94;4875694;29;20528;-73
2024/01/01 07:13:54;;;;;;;53.88;35.83;;;;;;;2.89;100.00;99347.66;4876119;29;20595;-72
2024/01/01 07:16:19;;;;;;;66.22;36.20;;;;;;;2.73;100.00;99336.56;4875718;29;20140;-72
2024/01/01 07:18:45;;;;;;;52.90;35.28;;;;;;;2.81;100.00;99349.94;4872277;29;20491;-73
2024/01/01 07:21:10;;;;;;;64.75;37.05;;;;;;;2.56;100.00;99355.03;4874975;29;20164;-72
2024/01/01 07:23:36;;;;;;;67.30;37.17;;;;;;;2.54;100.00;99351.69;4875316;29;20120;-73
2024/01/01 07:26:01;;;;;;;66.88;34.67;;;;;;;2.57;100.00;99351.50;4874635;29;20037;-71
2024/01/01 07:28:27;;;;;;;76.10;36.65;;;;;;;2.59;100.00;99360.06;4875837;29;20520;-73
2024/01/01 07:30:52;;;;;;;95.28;36.47;;;;;;;2.21;100.00;99369.44;4875955;29;20037;-73
2024/01/01 07:33:17;;;;;;;76.85;37.95;;;;;;;2.01;100.00;99371.47;4878610;29;20040;-73
2024/01/01 07:35:44;;;;;;;102.60;39.67;;;;;;;1.90;100.00;99370.47;4875622;29;20069;-73
2024/01/01 07:38:09;;;;;;;71.72;38.85;;;;;;;2.01;100.00;99366.28;4875213;29;20043;-73
2024/01/01 07:40:35;;;;;;;84.80;36.90;;;;;;;2.05;100.00;99359.97;4876452;29;20116;-73
2024/01/01 07:43:00;;;;;;;64.53;38.28;;;;;;;2.03;100.00;99377.44;4878350;29;20127;-73
2024/01/01 07:45:25;;;;;;;51.58;38.92;;;;;;;2.13;100.00;99382.06;4879098;29;20111;-73
2024/01/01 07:47:51;;;;;;;68.13;38.83;;;;;;;2.21;100.00;99390.25;4879622;29;20059;-74
2024/01/01 07:50:16;;;;;;;51.83;36.92;;;;;;;2.31;100.00;99396.56;4879399;29;20048;-73
2024/01/01 07:52:42;;;;;;;57.63;36.63;;;;;;;2.30;100.00;99394.88;4879020;29;20029;-73
2024/01/01 07:55:09;;;;;;;50.05;36.17;;;;;;;2.31;100.00;99406.97;4878746;29;20109;-73
2024/01/01 07:57:35;;;;;;;90.70;35.50;;;;;;;2.37;100.00;99404.00;4879169;29;20029;-73
2024/01/01 08:00:00;;;;;;;52.72;34.38;;;;;;;2.32;100.00;99406.06;4878754;29;20401;-73
2024/01/01 08:02:26;;;;;;;47.35;34.88;;;;;;;2.34;100.00;99402.44;4877821;29;20041;-72
2024/01/01 08:04:51;;;;;;;64.93;34.97;;;;;;;2.37;100.00;99404.84;4879070;29;20048;-73
2024/01/01 08:07:16;;;;;;;93.25;33.42;;;;;;;2.26;100.00;99402.06;4878891;29;20051;-73
2024/01/01 08:09:42;;;;;;;100.72;35.00;;;;;;;2.18;100.00;99398.28;4878278;29;20112;-73
2024/01/01 08:12:07;;;;;;;122.63;33.55;;;;;;;1.96;100.00;99396.94;4877429;29;20475;-74
2024/01/01 08:14:33;;;;;;;99.53;34.10;;;;;;;1.85;100.00;99398.53;4880605;29;20039;-73
2024/01/01 08:16:58;;;;;;;65.95;35.42;;;;;;;1.82;100.00;99404.78;4879107;29;20040;-72
2024/01/01 08:19:24;;;;;;;128.93;38.00;;;;;;;1.71;100.00;99409.75;4878499;29;20553;-73
2024/01/01 08:21:49;;;;;;;79.18;37.15;;;;;;;1.69;100.00;99409.03;4879391;29;20032;-75
2024/01/01 08:24:15;;;;;;;89.85;38.95;;;;;;;1.75;100.00;99403.47;4878652;29;20037;-73
2024/01/01 08:26:40;;;;;;;56.75;37.63;;;;;;;1.82;100.00;99394.38;4878766;29;20037;-73
2024/01/01 08:29:05;;;;;;;73.13;40.45;;;;;;;1.95;100.00;99395.28;4878495;29;20033;-72
2024/01/01 08:31:31;;;;;;;62.00;38.65;;;;;;;2.08;100.00;99394.53;4878301;29;20180;-73
2024/01/01 08:33:56;;;;;;;55.45;37.80;;;;;;;2.13;100.00;99392.47;4878666;29;20342;-73
2024/01/01 08:36:22;;;;;;;56.50;35.95;;;;;;;2.18;100.00;99400.88;4878368;29;20044;-72
2024/01/01 08:38:47;;;;;;;53.63;34.35;;;;;;;2.20;100.00;99406.81;4878003;29;20092;-72
2024/01/01 08:41:13;;;;;;;45.65;33.28;;;;;;;2.29;100.00;99403.66;4877844;29;20053;-72
2024/01/01 08:43:38;;;;;;;119.55;36.00;;;;;;;2.22;100.00;99412.75;4878409;29;20029;-74
2024/01/01 08:46:04;;;;;;;65.25;33.70;;;;;;;2.24;100.00;99396.09;4878320;29;20033;-73
2024/01/01 08:48:30;;;;;;;65.95;34.25;;;;;;;2.24;100.00;99408.31;4878404;29;20409;-73
2024/01/01 08:50:57;;;;;;;65.85;34.05;;;;;;;2.27;100.00;99415.91;4878708;29;20029;-73
2024/01/01 08:53:22;;;;;;;74.00;34.85;;;;;;;2.23;100.00;99404.03;4877398;29;20033;-73
2024/01/01 08:55:48;;;;;;;124.97;34.78;;;;;;;2.17;100.00;99405.25;4877923;29;20033;-74
2024/01/01 08:58:14;;;;;;;73.68;34.67;;;;;;;2.02;100.00;99421.78;4877864;29;20072;-72
2024/01/01 09:00:40;;;;;;;44.60;33.00;;;;;;;2.04;100.00;99420.75;4878214;29;20060;-72
2024/01/01 09:03:05;;;;;;;56.00;32.88;;;;;;;2.14;100.00;99425.41;4909990;23;20064;-84
2024/01/01 09:05:31;;;;;;;57.85;33.58;;;;;;;2.18;100.00;99437.31;4913712;29;20047;-84
2024/01/01 09:07:56;;;;;;;71.38;33.67;;;;;;;2.22;100.00;99441.41;4913513;29;20488;-84
2024/01/01 09:10:22;;;;;;;89.85;33.85;;;;;;;2.24;100.00;99442.16;4911579;29;20042;-85
2024/01/01 09:12:48;;;;;;;51.75;34.53;;;;;;;2.22;100.00;99438.78;4915176;29;20067;-85
2024/01/01 09:15:16;;;;;;;65.28;33.97;;;;;;;2.29;100.00;99446.16;4910307;29;20473;-83
2024/01/01 09:17:45;;;;;;;50.03;32.95;;;;;;;2.37;100.00;99450.88;4910481;29;20041;-85
2024/01/01 09:20:11;;;;;;;55.30;34.00;;;;;;;2.42;100.00;99465.28;4914033;29;20048;-85
2024/01/01 09:22:37;;;;;;;45.60;32.05;;;;;;;2.47;100.00;99454.59;4912277;29;20035;-85
2024/01/01 09:25:02;;;;;;;56.90;34.15;;;;;;;2.54;100.00;99458.47;4913326;29;20032;-85
2024/01/01 09:27:28;;;;;;;61.50;33.15;;;;;;;2.52;100.00;99468.19;4913436;29;20460;-84
2024/01/01 09:29:53;;;;;;;44.45;31.95;;;;;;;2.50;100.00;99477.84;4909680;29;20108;-84
2024/01/01 09:32:19;;;;;;;60.28;31.95;;;;;;;2.21;100.00;99477.00;4911959;29;20110;-86
2024/01/01 09:34:44;;;;;;;44.92;32.92;;;;;;;2.43;100.00;99485.19;4912883;29;20033;-86
2024/01/01 09:37:10;;;;;;;46.63;33.45;;;;;;;2.45;100.00;99490.31;4911824;29;20497;-84
2024/01/01 09:39:35;;;;;;;68.38;34.05;;;;;;;2.14;100.00;99493.06;4916401;29;20036;-85
2024/01/01 09:42:03;;;;;;;43.00;31.92;;;;;;;2.25;100.00;99488.06;4911431;29;20067;-83
2024/01/01 09:44:29;;;;;;;70.00;32.65;;;;;;;2.33;100.00;99494.50;4911321;29;20442;-85
2024/01/01 09:46:55;;;;;;;75.57;32.35;;;;;;;2.23;100.00;99493.38;4912938;29;20036;-86
2024/01/01 09:49:21;;;;;;;61.95;32.83;;;;;;;2.44;100.00;99496.44;4916494;29;20427;-84
2024/01/01 09:51:47;;;;;;;48.63;32.75;;;;;;;2.55;100.00;99495.78;4912982;29;20449;-85
2024/01/01 09:54:12;;;;;;;50.03;32.85;;;;;;;2.57;100.00;99492.16;4911974;29;20036;-85
2024/01/01 09:56:38;;;;;;;49.00;32.65;;;;;;;2.59;100.00;99498.13;4908407;29;20055;-85
2024/01/01 09:59:03;;;;;;;40.80;31.17;;;;;;;2.62;100.00;99497.94;4911257;29;20074;-82
2024/01/01 10:01:31;;;;;;;50.33;31.95;;;;;;;2.57;100.00;99496.53;4911949;29;20449;-86
2024/01/01 10:04:07;;;;;;;49.35;31.17;;;;;;;2.51;100.00;99502.97;4914079;29;20077;-84
2024/01/01 10:06:36;;;;;;;53.53;31.50;;;;;;;2.48;100.00;99495.31;4912364;29;20039;-84
2024/01/01 10:09:06;;;;;;;51.10;31.83;;;;;;;2.54;100.00;99502.75;4909771;29;20055;-86
2024/01/01 10:11:33;;;;;;;47.75;31.27;;;;;;;2.58;100.00;99501.66;4911425;29;20047;-85
2024/01/01 10:14:06;;;;;;;43.72;31.13;;;;;;;2.66;100.00;99509.81;4910221;29;20059;-84
2024/01/01 10:16:33;;;;;;;65.57;31.20;;;;;;;2.62;100.00;99505.75;4909860;29;20040;-86
2024/01/01 10:19:01;;;;;;;76.35;30.40;;;;;;;2.52;100.00;99494.22;4908649;29;20039;-86
2024/01/01 10:21:28;;;;;;;45.38;32.45;;;;;;;2.57;100.00;99492.16;4917428;29;20036;-80
2024/01/01 10:23:55;;;;;;;43.83;31.88;;;;;;;2.62;100.00;99487.50;4890795;29;20052;-80
2024/01/01 10:26:20;;;;;;;41.88;31.67;;;;;;;2.76;100.00;99487.50;4908217;29;20051;-82
2024/01/01 10:28:46;;;;;;;64.35;32.45;;;;;;;2.79;100.00;99484.69;4910831;29;20036;-82
2024/01/01 10:31:15;;;;;;;52.97;31.10;;;;;;;2.74;100.00;99484.16;4907167;29;20108;-81
2024/01/01 10:33:42;;;;;;;42.47;31.10;;;;;;;2.82;100.00;99481.91;4913829;29;20059;-80
2024/01/01 10:36:08;;;;;;;78.07;31.50;;;;;;;2.67;100.00;99488.06;4910439;29;20032;-79
2024/01/01 10:38:35;;;;;;;45.88;31.13;;;;;;;2.73;100.00;99481.63;4903069;29;20040;-81
2024/01/01 10:41:02;;;;;;;57.47;31.45;;;;;;;2.62;100.00;99468.44;4912170;29;20046;-82
2024/01/01 10:43:28;;;;;;;50.20;31.80;;;;;;;2.56;100.00;99459.22;4899264;29;20442;-83
2024/01/01 10:46:04;;;;;;;46.90;31.45;;;;;;;2.71;100.00;99462.66;4910280;29;20032;-80
2024/01/01 10:48:32;;;;;;;42.10;31.08;;;;;;;2.85;100.00;99475.66;4911676;29;20074;-83
2024/01/01 10:51:09;;;;;;;44.22;31.00;;;;;;;2.84;100.00;99464.38;4908749;29;20039;-83
2024/01/01 10:54:01;;;;;;;60.88;31.80;;;;;;;2.83;100.00;99462.72;4904782;29;20474;-79
2024/01/01 10:56:50;;;;;;;44.08;31.77;;;;;;;2.97;100.00;99463.63;4906903;29;20393;-82
2024/01/01 10:59:21;;;;;;;44.13;33.15;;;;;;;3.08;100.00;99461.16;4906408;29;20059;-82
2024/01/01 11:01:52;;;;;;;58.22;34.38;;;;;;;2.99;100.00;99461.75;4909603;29;20764;-81
2024/01/01 11:04:22;;;;;;;46.35;33.95;;;;;;;3.06;100.00;99463.06;4905933;29;20037;-81
2024/01/01 11:06:48;;;;;;;46.70;34.80;;;;;;;3.13;100.00;99454.72;4906723;29;20079;-81
2024/01/01 11:09:19;;;;;;;54.38;34.35;;;;;;;3.20;100.00;99455.16;4911450;29;20086;-82
2024/01/01 11:11:52;;;;;;;45.92;33.33;;;;;;;3.29;100.00;99445.00;4907517;29;20072;-80